createdAt,value
2023-02-15T00:01:46.435Z,0.52
2023-02-15T00:04:18.819Z,0.46
2023-02-15T00:06:45.202Z,0.46
2023-02-15T00:09:12.415Z,0.45
2023-02-15T00:11:41.705Z,0.44
2023-02-15T00:14:10.885Z,0.40
2023-02-15T00:16:38.913Z,0.38
2023-02-15T00:19:06.043Z,0.38
2023-02-15T00:21:33.908Z,0.37
2023-02-15T00:24:02.508Z,0.30
2023-02-15T00:26:30.077Z,0.30
2023-02-15T00:28:59.609Z,0.35
2023-02-15T00:31:26.550Z,0.36
2023-02-15T00:33:52.899Z,0.39
2023-02-15T00:36:19.223Z,0.36
2023-02-15T00:38:45.559Z,0.34
2023-02-15T00:41:11.951Z,0.35
2023-02-15T00:43:38.547Z,0.34
2023-02-15T00:46:06.203Z,0.34
2023-02-15T00:48:33.097Z,0.37
2023-02-15T00:51:00.898Z,0.38
2023-02-15T00:53:28.072Z,0.39
2023-02-15T00:55:54.562Z,0.39
2023-02-15T00:58:20.895Z,0.37
2023-02-15T01:00:48.568Z,0.35
2023-02-15T01:03:17.174Z,0.31
2023-02-15T01:05:43.622Z,0.28
2023-02-15T01:08:10.197Z,0.28
2023-02-15T01:10:37.065Z,0.27
2023-02-15T01:13:03.500Z,0.27
2023-02-15T01:15:29.869Z,0.16
2023-02-15T01:17:56.417Z,0.22
2023-02-15T01:20:28.343Z,0.27
2023-02-15T01:22:55.197Z,0.27
2023-02-15T01:25:23.830Z,0.31
2023-02-15T01:27:50.397Z,0.31
2023-02-15T01:30:17.552Z,0.35
2023-02-15T01:32:44.305Z,0.37
2023-02-15T01:35:11.398Z,0.39
2023-02-15T01:37:38.506Z,0.39
2023-02-15T01:40:09.215Z,0.35
2023-02-15T01:42:36.184Z,0.40
2023-02-15T01:45:28.030Z,0.30
2023-02-15T01:48:13.172Z,0.27
2023-02-15T01:50:43.895Z,0.21
2023-02-15T01:53:16.396Z,0.19
2023-02-15T01:55:58.017Z,0.17
2023-02-15T01:58:27.102Z,0.19
2023-02-15T02:00:55.731Z,0.21
2023-02-15T02:03:30.926Z,0.18
2023-02-15T02:05:57.243Z,0.20
2023-02-15T02:08:23.718Z,0.27
2023-02-15T02:10:50.059Z,0.28
2023-02-15T02:13:16.721Z,0.26
2023-02-15T02:15:58.482Z,0.33
2023-02-15T02:18:40.138Z,0.32
2023-02-15T02:21:49.469Z,0.34
2023-02-15T02:24:24.525Z,0.33
2023-02-15T02:27:29.129Z,0.36
2023-02-15T02:30:04.195Z,0.45
2023-02-15T02:33:01.401Z,0.51
2023-02-15T02:35:29.905Z,0.51
2023-02-15T02:38:09.199Z,0.51
2023-02-15T02:40:41.888Z,0.46
2023-02-15T02:43:36.397Z,0.43
2023-02-15T02:46:25.768Z,0.33
2023-02-15T02:48:52.272Z,0.36
2023-02-15T02:51:22.346Z,0.32
2023-02-15T02:53:52.506Z,0.27
2023-02-15T02:56:37.643Z,0.16
2023-02-15T02:59:13.577Z,0.10
2023-02-15T03:01:52.858Z,0.14
2023-02-15T03:04:24.391Z,0.22
2023-02-15T03:06:59.088Z,0.21
2023-02-15T03:09:44.592Z,0.20
2023-02-15T03:12:24.494Z,0.29
2023-02-15T03:15:01.816Z,0.29
2023-02-15T03:17:33.243Z,0.29
2023-02-15T03:20:02.912Z,0.28
2023-02-15T03:22:36.625Z,0.19
2023-02-15T03:25:06.022Z,0.15
2023-02-15T03:27:37.577Z,0.11
2023-02-15T03:30:06.853Z,0.05
2023-02-15T03:32:35.455Z,0.06
2023-02-15T03:35:02.681Z,0.05
2023-02-15T03:37:37.398Z,0.03
2023-02-15T03:40:37.183Z,-0.02
2023-02-15T03:43:35.951Z,-0.04
2023-02-15T03:46:13.588Z,-0.07
2023-02-15T03:48:55.473Z,-0.09
2023-02-15T03:51:35.807Z,-0.03
2023-02-15T03:54:10.117Z,0.01
2023-02-15T03:56:38.995Z,-0.06
2023-02-15T03:59:24.011Z,-0.10
2023-02-15T04:02:16.520Z,-0.13
2023-02-15T04:04:48.264Z,-0.19
2023-02-15T04:07:14.605Z,-0.22
2023-02-15T04:09:59.684Z,-0.25
2023-02-15T04:12:26.116Z,-0.23
2023-02-15T04:15:11.213Z,-0.22
2023-02-15T04:17:38.889Z,-0.18
2023-02-15T04:20:25.908Z,-0.16
2023-02-15T04:23:11.195Z,-0.02
2023-02-15T04:25:37.516Z,0.02
2023-02-15T04:28:04.005Z,-0.07
2023-02-15T04:30:30.428Z,-0.10
2023-02-15T04:32:58.038Z,-0.07
2023-02-15T04:35:24.383Z,-0.09
2023-02-15T04:37:50.861Z,-0.09
2023-02-15T04:40:19.617Z,-0.14
2023-02-15T04:42:48.806Z,-0.22
2023-02-15T04:45:15.222Z,-0.26
2023-02-15T04:47:42.175Z,-0.31
2023-02-15T04:50:08.718Z,-0.25
2023-02-15T04:52:35.123Z,-0.35
2023-02-15T04:55:01.493Z,-0.34
2023-02-15T04:57:27.796Z,-0.35
2023-02-15T04:59:54.172Z,-0.33
2023-02-15T05:02:20.543Z,-0.33
2023-02-15T05:04:46.865Z,-0.41
2023-02-15T05:07:13.142Z,-0.45
2023-02-15T05:09:39.461Z,-0.49
2023-02-15T05:12:06.042Z,-0.50
2023-02-15T05:14:32.395Z,-0.53
2023-02-15T05:17:01.781Z,-0.61
2023-02-15T05:19:28.716Z,-0.59
2023-02-15T05:21:55.100Z,-0.61
2023-02-15T05:24:40.478Z,-0.65
2023-02-15T05:27:25.204Z,-0.56
2023-02-15T05:29:51.543Z,-0.55
2023-02-15T05:32:18.019Z,-0.56
2023-02-15T05:34:44.446Z,-0.62
2023-02-15T05:37:10.770Z,-0.60
2023-02-15T05:39:37.114Z,-0.63
2023-02-15T05:42:03.595Z,-0.63
2023-02-15T05:44:30.336Z,-0.71
2023-02-15T05:46:56.713Z,-0.76
2023-02-15T05:49:23.029Z,-0.78
2023-02-15T05:51:49.460Z,-0.82
2023-02-15T05:54:15.964Z,-0.85
2023-02-15T05:56:42.283Z,-0.79
2023-02-15T05:59:08.652Z,-0.73
2023-02-15T06:01:35.077Z,-0.68
2023-02-15T06:04:01.500Z,-0.68
2023-02-15T06:06:27.807Z,-0.66
2023-02-15T06:08:54.174Z,-0.71
2023-02-15T06:11:20.474Z,-0.73
2023-02-15T06:13:46.846Z,-0.63
2023-02-15T06:16:13.311Z,-0.59
2023-02-15T06:18:39.671Z,-0.65
2023-02-15T06:21:05.959Z,-0.75
2023-02-15T06:23:32.302Z,-0.78
2023-02-15T06:25:58.689Z,-0.82
2023-02-15T06:28:26.413Z,-0.83
2023-02-15T06:30:53.206Z,-0.89
2023-02-15T06:33:19.677Z,-0.86
2023-02-15T06:35:46.529Z,-0.79
2023-02-15T06:38:12.906Z,-0.78
2023-02-15T06:40:39.257Z,-0.72
2023-02-15T06:43:05.719Z,-0.69
2023-02-15T06:45:32.208Z,-0.70
2023-02-15T06:47:58.534Z,-0.79
2023-02-15T06:50:24.888Z,-0.85
2023-02-15T06:52:56.970Z,-0.91
2023-02-15T06:55:23.301Z,-0.87
2023-02-15T06:57:51.043Z,-0.88
2023-02-15T07:00:18.658Z,-0.88
2023-02-15T07:02:45.516Z,-0.83
2023-02-15T07:05:11.952Z,-0.77
2023-02-15T07:07:41.501Z,-0.69
2023-02-15T07:10:10.028Z,-0.67
2023-02-15T07:12:42.416Z,-0.62
2023-02-15T07:15:14.313Z,-0.69
2023-02-15T07:17:40.619Z,-0.56
2023-02-15T07:20:10.027Z,-0.50
2023-02-15T07:22:37.284Z,-0.46
2023-02-15T07:25:05.591Z,-0.51
2023-02-15T07:27:35.901Z,-0.47
2023-02-15T07:30:02.484Z,-0.44
2023-02-15T07:32:33.272Z,-0.41
2023-02-15T07:35:00.197Z,-0.39
2023-02-15T07:37:27.831Z,-0.38
2023-02-15T07:39:54.265Z,-0.33
2023-02-15T07:42:21.975Z,-0.27
2023-02-15T07:44:48.451Z,-0.23
2023-02-15T07:47:14.847Z,-0.28
2023-02-15T07:49:41.319Z,-0.33
2023-02-15T07:52:07.659Z,-0.26
2023-02-15T07:54:33.981Z,-0.26
2023-02-15T07:57:01.512Z,-0.29
2023-02-15T07:59:28.221Z,-0.27
2023-02-15T08:01:57.092Z,-0.16
2023-02-15T08:04:24.241Z,-0.15
2023-02-15T08:06:53.994Z,-0.17
2023-02-15T08:09:20.638Z,-0.15
2023-02-15T08:11:47.912Z,-0.15
2023-02-15T08:14:16.888Z,-0.14
2023-02-15T08:16:48.995Z,-0.07
2023-02-15T08:19:36.550Z,-0.04
2023-02-15T08:22:08.380Z,0.04
2023-02-15T08:24:39.696Z,0.05
2023-02-15T08:27:11.009Z,0.08
2023-02-15T08:29:38.624Z,0.11
2023-02-15T08:32:07.925Z,0.12
2023-02-15T08:39:30.364Z,-0.24
2023-02-15T08:46:41.834Z,0.27
2023-02-15T08:49:25.096Z,0.34
2023-02-15T08:52:07.521Z,0.07
2023-02-15T08:58:07.622Z,0.31
2023-02-15T09:00:52.605Z,0.11
2023-02-15T09:06:16.568Z,0.23
2023-02-15T09:12:36.515Z,0.57
2023-02-15T09:15:26.763Z,0.52
2023-02-15T09:17:54.015Z,0.52
2023-02-15T09:20:20.342Z,0.44
2023-02-15T09:22:46.720Z,0.40
2023-02-15T09:25:14.470Z,0.42
2023-02-15T09:27:42.005Z,0.50
2023-02-15T09:30:08.881Z,0.50
2023-02-15T09:32:36.521Z,0.56
2023-02-15T09:46:28.707Z,0.65
2023-02-15T09:49:01.827Z,0.56
2023-02-15T09:52:00.057Z,0.54
2023-02-15T09:54:45.642Z,0.46
2023-02-15T09:57:46.741Z,0.55
2023-02-15T10:00:35.103Z,0.52
2023-02-15T10:03:16.154Z,0.54
2023-02-15T10:06:04.068Z,0.64
2023-02-15T10:08:49.689Z,0.68
2023-02-15T10:11:36.983Z,0.74
2023-02-15T10:14:15.075Z,0.75
2023-02-15T10:16:53.051Z,0.84
2023-02-15T10:19:52.659Z,0.80
2023-02-15T10:22:40.388Z,0.90
2023-02-15T10:25:15.811Z,0.89
2023-02-15T10:27:48.230Z,0.98
2023-02-15T10:30:15.816Z,0.87
2023-02-15T10:32:57.758Z,0.93
2023-02-15T10:35:47.722Z,0.94
2023-02-15T10:38:31.076Z,0.90
2023-02-15T10:41:16.983Z,0.94
2023-02-15T10:44:18.850Z,0.90
2023-02-15T10:47:03.696Z,0.87
2023-02-15T10:50:18.169Z,0.99
2023-02-15T10:53:00.048Z,1.01
2023-02-15T10:55:30.808Z,0.89
2023-02-15T10:58:17.458Z,0.94
2023-02-15T11:01:01.563Z,0.93
2023-02-15T11:03:50.992Z,0.88
2023-02-15T11:06:21.267Z,0.96
2023-02-15T11:08:51.978Z,1.00
2023-02-15T11:11:26.367Z,1.06
2023-02-15T11:14:00.658Z,1.01
2023-02-15T11:16:30.846Z,0.98
2023-02-15T11:19:02.213Z,1.02
2023-02-15T11:21:37.808Z,1.04
2023-02-15T11:24:39.094Z,1.11
2023-02-15T11:27:22.469Z,1.23
2023-02-15T11:30:05.810Z,1.28
2023-02-15T11:32:36.091Z,1.25
2023-02-15T11:35:16.439Z,1.20
2023-02-15T11:37:49.410Z,1.25
2023-02-15T11:40:25.772Z,1.39
2023-02-15T11:42:56.258Z,1.51
2023-02-15T11:45:35.879Z,1.55
2023-02-15T11:48:11.499Z,1.56
2023-02-15T11:50:38.503Z,1.56
2023-02-15T11:53:22.475Z,1.63
2023-02-15T11:55:53.673Z,1.54
2023-02-15T11:58:44.716Z,1.56
2023-02-15T12:01:17.169Z,1.54
2023-02-15T12:03:52.605Z,1.56
2023-02-15T12:06:27.838Z,1.68
2023-02-15T12:09:28.928Z,1.65
2023-02-15T12:12:15.559Z,1.46
2023-02-15T12:14:51.314Z,1.46
2023-02-15T12:17:19.063Z,1.41
2023-02-15T12:19:50.040Z,1.35
2023-02-15T12:22:32.630Z,1.37
2023-02-15T12:25:24.671Z,1.42
2023-02-15T12:27:51.471Z,1.49
2023-02-15T12:30:31.783Z,1.47
2023-02-15T12:33:23.403Z,1.59
2023-02-15T12:35:58.448Z,1.60
2023-02-15T12:38:26.346Z,1.61
2023-02-15T12:41:22.929Z,1.63
2023-02-15T12:44:14.093Z,1.83
2023-02-15T12:46:41.135Z,1.88
2023-02-15T12:49:11.760Z,1.95
2023-02-15T12:52:03.516Z,2.18
2023-02-15T13:05:45.242Z,2.41
2023-02-15T13:16:23.833Z,2.35
2023-02-15T13:22:41.819Z,2.14
2023-02-15T13:36:22.413Z,2.19
2023-02-15T13:39:02.626Z,2.48
2023-02-15T13:45:13.704Z,2.62
2023-02-15T13:52:33.143Z,2.91
2023-02-15T13:55:45.915Z,2.59
2023-02-15T13:58:46.202Z,2.57
2023-02-15T14:01:45.985Z,2.48
2023-02-15T14:04:33.785Z,2.53
2023-02-15T14:07:06.921Z,2.66
2023-02-15T14:10:03.449Z,2.80
2023-02-15T14:12:48.456Z,2.92
2023-02-15T14:15:46.132Z,2.97
2023-02-15T14:18:25.293Z,3.08
2023-02-15T14:21:17.116Z,3.05
2023-02-15T14:24:19.186Z,3.13
2023-02-15T14:26:54.180Z,3.03
2023-02-15T14:29:48.449Z,3.09
2023-02-15T14:32:22.511Z,3.24
2023-02-15T14:34:53.670Z,3.40
2023-02-15T14:37:28.861Z,3.25
2023-02-15T14:40:35.473Z,3.20
2023-02-15T14:43:29.193Z,3.08
2023-02-15T14:46:08.229Z,3.02
2023-02-15T14:48:54.479Z,3.03
2023-02-15T14:51:57.796Z,3.19
2023-02-15T14:54:27.716Z,3.23
2023-02-15T14:57:06.588Z,3.14
2023-02-15T14:59:36.136Z,3.08
2023-02-15T15:02:08.479Z,3.05
2023-02-15T15:04:56.553Z,3.02
2023-02-15T15:07:41.875Z,3.05
2023-02-15T15:10:28.136Z,3.00
2023-02-15T15:12:55.537Z,2.97
2023-02-15T15:15:28.255Z,2.93
2023-02-15T15:18:05.043Z,2.77
2023-02-15T15:20:51.326Z,2.75
2023-02-15T15:23:21.833Z,2.63
2023-02-15T15:25:54.554Z,2.50
2023-02-15T15:28:36.370Z,2.42
2023-02-15T15:31:09.703Z,2.36
2023-02-15T15:33:58.576Z,2.38
2023-02-15T15:37:03.716Z,2.34
2023-02-15T15:39:51.936Z,2.39
2023-02-15T15:42:56.138Z,2.35
2023-02-15T15:45:44.185Z,2.24
2023-02-15T15:48:31.564Z,2.13
2023-02-15T15:51:05.166Z,2.18
2023-02-15T15:53:34.159Z,2.19
2023-02-15T15:56:07.841Z,2.10
2023-02-15T15:58:35.618Z,2.00
2023-02-15T16:01:17.356Z,1.83
2023-02-15T16:04:07.858Z,1.81
2023-02-15T16:06:40.187Z,1.88
2023-02-15T16:09:19.220Z,1.82
2023-02-15T16:11:51.339Z,1.77
2023-02-15T16:14:38.792Z,1.83
2023-02-15T16:17:18.192Z,1.81
2023-02-15T16:19:45.076Z,1.67
2023-02-15T16:22:20.337Z,1.53
2023-02-15T16:25:09.997Z,1.51
2023-02-15T16:27:44.815Z,1.52
2023-02-15T16:30:39.490Z,1.62
2023-02-15T16:34:05.303Z,1.65
2023-02-15T16:36:31.827Z,1.35
2023-02-15T16:39:30.629Z,1.47
2023-02-15T16:42:09.108Z,1.45
2023-02-15T16:44:35.851Z,1.38
2023-02-15T16:47:16.750Z,1.34
2023-02-15T16:50:37.519Z,1.32
2023-02-15T16:53:08.083Z,1.47
2023-02-15T16:55:40.313Z,1.51
2023-02-15T16:58:08.960Z,1.42
2023-02-15T17:00:39.232Z,1.45
2023-02-15T17:03:14.691Z,1.53
2023-02-15T17:05:43.439Z,1.47
2023-02-15T17:08:35.183Z,1.37
2023-02-15T17:11:12.865Z,1.45
2023-02-15T17:13:40.588Z,1.52
2023-02-15T17:16:27.832Z,1.53
2023-02-15T17:18:59.179Z,1.36
2023-02-15T17:21:31.947Z,1.25
2023-02-15T17:24:08.284Z,1.26
2023-02-15T17:26:36.957Z,1.33
2023-02-15T17:29:24.500Z,1.32
2023-02-15T17:31:52.822Z,1.43
2023-02-15T17:34:51.992Z,1.36
2023-02-15T17:37:33.635Z,1.39
2023-02-15T17:40:02.008Z,1.38
2023-02-15T17:43:00.686Z,1.26
2023-02-15T17:45:53.826Z,1.14
2023-02-15T17:48:38.401Z,1.17
2023-02-15T17:55:02.115Z,1.03
2023-02-15T17:57:29.961Z,1.23
2023-02-15T18:00:15.375Z,1.10
2023-02-15T18:03:03.162Z,1.12
2023-02-15T18:05:49.376Z,1.14
2023-02-15T18:08:38.915Z,1.21
2023-02-15T18:11:23.640Z,1.11
2023-02-15T18:13:51.484Z,1.27
2023-02-15T18:16:23.788Z,1.25
2023-02-15T18:18:56.888Z,1.23
2023-02-15T18:21:26.366Z,1.15
2023-02-15T18:23:52.743Z,1.08
2023-02-15T18:26:26.585Z,1.21
2023-02-15T18:28:53.154Z,1.08
2023-02-15T18:31:21.005Z,1.25
2023-02-15T18:33:50.117Z,1.27
2023-02-15T18:36:45.579Z,1.18
2023-02-15T18:39:24.292Z,1.12
2023-02-15T18:41:50.661Z,1.12
2023-02-15T18:44:19.857Z,1.10
2023-02-15T18:46:47.387Z,1.06
2023-02-15T18:49:13.731Z,1.14
2023-02-15T18:51:40.865Z,1.11
2023-02-15T18:54:17.602Z,1.09
2023-02-15T18:56:54.014Z,1.08
2023-02-15T18:59:22.172Z,1.03
2023-02-15T19:01:48.521Z,1.00
2023-02-15T19:04:14.863Z,1.07
2023-02-15T19:06:48.387Z,1.07
2023-02-15T19:09:26.036Z,1.13
2023-02-15T19:11:54.717Z,1.16
2023-02-15T19:14:32.473Z,1.19
2023-02-15T19:17:00.195Z,1.18
2023-02-15T19:19:28.728Z,1.18
2023-02-15T19:21:55.551Z,1.18
2023-02-15T19:24:25.464Z,1.25
2023-02-15T19:26:54.594Z,1.28
2023-02-15T19:29:28.212Z,1.30
2023-02-15T19:31:54.634Z,1.26
2023-02-15T19:34:21.044Z,1.28
2023-02-15T19:36:49.996Z,1.29
2023-02-15T19:39:25.662Z,1.32
2023-02-15T19:41:52.560Z,1.29
2023-02-15T19:44:19.080Z,1.33
2023-02-15T19:46:48.884Z,1.30
2023-02-15T19:49:15.222Z,1.36
2023-02-15T19:51:41.611Z,1.35
2023-02-15T19:54:31.000Z,1.40
2023-02-15T19:56:57.471Z,1.38
2023-02-15T19:59:29.836Z,1.35
2023-02-15T20:01:57.137Z,1.28
2023-02-15T20:04:27.204Z,1.30
2023-02-15T20:06:59.416Z,1.28
2023-02-15T20:09:29.858Z,1.30
2023-02-15T20:11:58.819Z,1.30
2023-02-15T20:14:25.362Z,1.27
2023-02-15T20:17:00.746Z,1.31
2023-02-15T20:19:27.086Z,1.28
2023-02-15T20:21:54.825Z,1.24
2023-02-15T20:24:24.640Z,1.21
2023-02-15T20:26:50.995Z,1.19
2023-02-15T20:29:18.994Z,1.26
2023-02-15T20:31:45.747Z,1.31
2023-02-15T20:34:12.195Z,1.37
2023-02-15T20:36:42.034Z,1.40
2023-02-15T20:39:16.326Z,1.39
2023-02-15T20:41:48.680Z,1.40
2023-02-15T20:44:14.979Z,1.35
2023-02-15T20:46:41.348Z,1.28
2023-02-15T20:49:07.786Z,1.25
2023-02-15T20:51:37.020Z,1.20
2023-02-15T20:54:16.954Z,1.14
2023-02-15T20:56:43.340Z,1.15
2023-02-15T20:59:21.053Z,1.16
2023-02-15T21:01:50.391Z,1.06
2023-02-15T21:04:29.431Z,1.17
2023-02-15T21:06:58.812Z,1.23
2023-02-15T21:09:25.200Z,1.26
2023-02-15T21:11:53.787Z,1.28
2023-02-15T21:14:24.750Z,1.27
2023-02-15T21:16:51.753Z,1.20
2023-02-15T21:19:21.293Z,1.23
2023-02-15T21:21:50.743Z,1.19
2023-02-15T21:24:26.667Z,1.27
2023-02-15T21:26:54.603Z,1.34
2023-02-15T21:29:26.889Z,1.43
2023-02-15T21:31:53.624Z,1.32
2023-02-15T21:34:24.097Z,1.40
2023-02-15T21:36:53.440Z,1.34
2023-02-15T21:39:29.678Z,1.33
2023-02-15T21:42:15.009Z,1.34
2023-02-15T21:45:00.095Z,1.26
2023-02-15T21:47:50.265Z,1.27
2023-02-15T21:50:41.157Z,1.25
2023-02-15T21:53:13.073Z,1.19
2023-02-15T21:55:42.839Z,1.08
2023-02-15T21:58:19.291Z,1.15
2023-02-15T22:00:45.848Z,1.16
2023-02-15T22:03:13.278Z,1.26
2023-02-15T22:05:39.724Z,1.34
2023-02-15T22:08:12.444Z,1.28
2023-02-15T22:10:39.180Z,1.26
2023-02-15T22:13:05.901Z,1.25
2023-02-15T22:15:36.388Z,1.23
2023-02-15T22:18:04.616Z,1.15
2023-02-15T22:20:31.478Z,1.25
2023-02-15T22:22:57.876Z,1.25
2023-02-15T22:25:25.742Z,1.26
2023-02-15T22:27:54.520Z,1.28
2023-02-15T22:30:23.486Z,1.26
2023-02-15T22:32:49.882Z,1.26
2023-02-15T22:35:20.123Z,1.30
2023-02-15T22:37:46.443Z,1.30
2023-02-15T22:40:18.512Z,1.29
2023-02-15T22:42:48.305Z,1.30
2023-02-15T22:45:19.030Z,1.30
2023-02-15T22:47:47.918Z,1.32
2023-02-15T22:50:33.180Z,1.32
2023-02-15T22:53:01.030Z,1.31
2023-02-15T22:55:31.354Z,1.33
2023-02-15T22:57:58.085Z,1.36
2023-02-15T23:00:27.220Z,1.33
2023-02-15T23:02:54.685Z,1.37
2023-02-15T23:05:27.234Z,1.36
2023-02-15T23:07:54.282Z,1.37
2023-02-15T23:10:23.529Z,1.45
2023-02-15T23:13:17.172Z,1.40
2023-02-15T23:15:48.569Z,1.39
2023-02-15T23:18:28.793Z,1.47
2023-02-15T23:20:56.978Z,1.51
2023-02-15T23:23:36.433Z,1.38
2023-02-15T23:26:05.021Z,1.30
2023-02-15T23:28:37.930Z,1.23
2023-02-15T23:31:21.689Z,1.24
2023-02-15T23:33:49.394Z,1.21
2023-02-15T23:36:28.936Z,1.20
2023-02-15T23:38:57.843Z,1.19
2023-02-15T23:41:30.005Z,1.12
2023-02-15T23:44:01.944Z,1.07
2023-02-15T23:46:38.499Z,1.05
2023-02-15T23:49:14.735Z,0.97
2023-02-15T23:51:46.868Z,0.94
2023-02-15T23:54:14.695Z,0.90
2023-02-15T23:56:42.227Z,0.88
2023-02-15T23:59:15.210Z,0.85
